»·PEaware :: N4563D KTUS-KDMN

N4563D :: KTUS-KDMN

FLIGHT INFORMATION

Flight Status: Arrived
Operator: Privately registered:
United States
More flights under this callsign
Pilot: Mark J. (36739)
Aircraft: CESSNA 172 SKYHAWK
(C172)
More flights by this aircraft type
Origin: KTUS Tucson Intl
United States
Destination: KDMN Deming Mun
United States
More flights between these airports :: More routes between these airports
Route: SSO
File this flight plan on PilotEdge
Remarks:
Altitude:
(Current/Filed)
9,500ft
Speed:
(Current/Filed)
115kts
Departed: 17-Jul-23 03:02 PM
Arrived: 17-Jul-23 04:48 PM
Distance/Time
Traveled:
164nm/1:46
Distance/Time
To Go:
Arrived

Flight Plot

Page will automatically refresh every two minutes.

Flight plan parsing failed; only flown route is shown


Map Options




Map Legend


Flown Route
Filed Route
Departure Airport
Arrival Airport
Navaid (VOR, NDB)
Fix

Horizontal Profiles

Position Reports

Time Latitude Longitude Heading Altitude Ground
Speed
17-Jul-23 13:58 32.116053 -110.934764 132 2605ft 0kts
17-Jul-23 13:59 32.116053 -110.934764 132 2605ft 0kts
17-Jul-23 14:00 32.116053 -110.934764 132 2605ft 0kts
17-Jul-23 14:01 32.116053 -110.934764 132 2605ft 0kts
17-Jul-23 14:02 32.116053 -110.934764 132 2605ft 0kts
17-Jul-23 14:03 32.116053 -110.934764 132 2605ft 0kts
17-Jul-23 14:04 32.116053 -110.934764 132 2605ft 0kts
17-Jul-23 14:05 32.116053 -110.934764 132 2605ft 0kts
17-Jul-23 14:06 32.116053 -110.934764 132 2605ft 0kts
17-Jul-23 14:07 32.116053 -110.934764 132 2605ft 0kts
17-Jul-23 14:08 32.116053 -110.934764 132 2605ft 0kts
17-Jul-23 14:09 32.116053 -110.934764 132 2605ft 0kts
17-Jul-23 14:10 32.116053 -110.934764 132 2605ft 0kts
17-Jul-23 14:11 32.116053 -110.934764 132 2605ft 0kts
17-Jul-23 14:12 32.116053 -110.934764 132 2605ft 0kts
17-Jul-23 14:13 32.116053 -110.934764 132 2605ft 0kts
17-Jul-23 14:14 32.116053 -110.934764 132 2605ft 0kts
17-Jul-23 14:15 32.116053 -110.934764 132 2605ft 0kts
17-Jul-23 14:16 32.116053 -110.934764 132 2605ft 0kts
17-Jul-23 14:17 32.116053 -110.934764 132 2605ft 0kts
17-Jul-23 14:18 32.116053 -110.934764 132 2605ft 0kts
17-Jul-23 14:19 32.116053 -110.934764 132 2605ft 0kts
17-Jul-23 14:20 32.116053 -110.934764 132 2605ft 0kts
17-Jul-23 14:21 32.116053 -110.934764 132 2605ft 0kts
17-Jul-23 14:22 32.116053 -110.934764 132 2605ft 0kts
17-Jul-23 14:23 32.116053 -110.934764 132 2605ft 0kts
17-Jul-23 14:24 32.116053 -110.934764 132 2605ft 0kts
17-Jul-23 14:25 32.116053 -110.934764 132 2605ft 0kts
17-Jul-23 14:26 32.116053 -110.934764 132 2605ft 0kts
17-Jul-23 14:27 32.116053 -110.934764 132 2605ft 0kts
17-Jul-23 14:28 32.116053 -110.934764 132 2605ft 0kts
17-Jul-23 14:29 32.116053 -110.934764 132 2605ft 0kts
17-Jul-23 14:30 32.116053 -110.934764 132 2605ft 0kts
17-Jul-23 14:31 32.116053 -110.934764 132 2605ft 0kts
17-Jul-23 14:32 32.116053 -110.934764 132 2605ft 0kts
17-Jul-23 14:33 32.116053 -110.934764 132 2605ft 0kts
17-Jul-23 14:34 32.116053 -110.934764 132 2642ft 0kts
17-Jul-23 14:35 32.116053 -110.934764 132 2642ft 0kts
17-Jul-23 14:36 32.116053 -110.934764 132 2642ft 0kts
17-Jul-23 14:37 32.116053 -110.934764 132 2642ft 0kts
17-Jul-23 14:38 32.116053 -110.934764 132 2642ft 0kts
17-Jul-23 14:39 32.116053 -110.934764 132 2642ft 0kts
17-Jul-23 14:40 32.116053 -110.934764 132 2642ft 0kts
17-Jul-23 14:41 32.116053 -110.934764 132 2642ft 0kts
17-Jul-23 14:42 32.116053 -110.934764 132 2642ft 0kts
17-Jul-23 14:43 32.116053 -110.934764 132 2642ft 0kts
17-Jul-23 14:44 32.116053 -110.934764 132 2642ft 0kts
17-Jul-23 14:45 32.116053 -110.934764 132 2642ft 0kts
17-Jul-23 14:46 32.116053 -110.934764 132 2642ft 0kts
17-Jul-23 14:47 32.116053 -110.934764 132 2605ft 0kts
17-Jul-23 14:48 32.116053 -110.934764 132 2605ft 0kts
17-Jul-23 14:49 32.116053 -110.934763 131 2605ft 0kts
17-Jul-23 14:50 32.115531 -110.934898 190 2606ft 4kts
17-Jul-23 14:51 32.115188 -110.935018 206 2607ft 1kts
17-Jul-23 14:52 32.115751 -110.936461 313 2604ft 11kts
17-Jul-23 14:53 32.117687 -110.938767 315 2597ft 7kts
17-Jul-23 14:54 32.120289 -110.941802 314 2589ft 19kts
17-Jul-23 14:55 32.124530 -110.946787 310 2573ft 13kts
17-Jul-23 14:56 32.124679 -110.947741 224 2572ft 0kts
17-Jul-23 14:57 32.124679 -110.947740 224 2572ft 0kts
17-Jul-23 14:58 32.124679 -110.947741 224 2572ft 0kts
17-Jul-23 14:59 32.124678 -110.947741 224 2572ft 0kts
17-Jul-23 15:00 32.123808 -110.948330 147 2572ft 9kts
17-Jul-23 15:01 32.113799 -110.937036 127 2720ft 84kts
17-Jul-23 15:02 32.097019 -110.914825 117 3066ft 96kts
17-Jul-23 15:03 32.083963 -110.886068 113 3408ft 100kts
17-Jul-23 15:04 32.072239 -110.855994 111 3911ft 98kts
17-Jul-23 15:05 32.059864 -110.824007 115 4220ft 108kts
17-Jul-23 15:06 32.046443 -110.791855 118 4391ft 112kts
17-Jul-23 15:07 32.033152 -110.758818 118 4549ft 112kts
17-Jul-23 15:08 32.019181 -110.726211 115 4850ft 112kts
17-Jul-23 15:09 32.004081 -110.694093 122 5269ft 114kts
17-Jul-23 15:10 31.991211 -110.660683 86 5601ft 114kts
17-Jul-23 15:11 31.994931 -110.623870 75 5966ft 115kts
17-Jul-23 15:12 31.999057 -110.586976 73 6469ft 111kts
17-Jul-23 15:13 32.006324 -110.550947 71 6855ft 112kts
17-Jul-23 15:14 32.014945 -110.515472 69 7180ft 112kts
17-Jul-23 15:15 32.025474 -110.480731 71 7491ft 112kts
17-Jul-23 15:16 32.034952 -110.445647 71 7798ft 112kts
17-Jul-23 15:17 32.044090 -110.410427 74 8081ft 113kts
17-Jul-23 15:18 32.052017 -110.374607 74 8349ft 112kts
17-Jul-23 15:19 32.060716 -110.338899 72 8620ft 113kts
17-Jul-23 15:20 32.068464 -110.302821 77 8857ft 113kts
17-Jul-23 15:21 32.076037 -110.266426 74 9089ft 114kts
17-Jul-23 15:22 32.084081 -110.230280 73 9306ft 114kts
17-Jul-23 15:23 32.091205 -110.193719 79 9291ft 117kts
17-Jul-23 15:24 32.098612 -110.159468 77 9391ft 105kts
17-Jul-23 15:25 32.105149 -110.126500 73 9388ft 102kts
17-Jul-23 15:26 32.112169 -110.094174 74 9388ft 99kts
17-Jul-23 15:27 32.119090 -110.062501 73 9382ft 100kts
17-Jul-23 15:28 32.125865 -110.031090 74 9383ft 96kts
17-Jul-23 15:29 32.132436 -110.000685 74 9384ft 94kts
17-Jul-23 15:30 32.138932 -109.970438 74 9386ft 95kts
17-Jul-23 15:31 32.141324 -109.959334 74 9383ft 98kts
17-Jul-23 15:32 32.145801 -109.938232 74 9507ft 96kts
17-Jul-23 15:33 32.152384 -109.907264 74 9510ft 98kts
17-Jul-23 15:34 32.159247 -109.875482 74 9511ft 101kts
17-Jul-23 15:35 32.166257 -109.843336 74 9512ft 101kts
17-Jul-23 15:36 32.173391 -109.810989 74 9509ft 102kts
17-Jul-23 15:37 32.178659 -109.778045 79 9505ft 102kts
17-Jul-23 15:38 32.182937 -109.745110 81 9506ft 101kts
17-Jul-23 15:39 32.186739 -109.712312 82 9491ft 100kts
17-Jul-23 15:40 32.190666 -109.679958 77 9489ft 99kts
17-Jul-23 15:41 32.196365 -109.647921 77 9489ft 99kts
17-Jul-23 15:42 32.202154 -109.615809 76 9479ft 100kts
17-Jul-23 15:43 32.207974 -109.583848 77 9483ft 99kts
17-Jul-23 15:44 32.213789 -109.551904 77 9484ft 99kts
17-Jul-23 15:45 32.219723 -109.519224 77 9490ft 103kts
17-Jul-23 15:46 32.225828 -109.486254 76 9488ft 102kts
17-Jul-23 15:47 32.231973 -109.453635 76 9480ft 101kts
17-Jul-23 15:48 32.238173 -109.421200 76 9476ft 100kts
17-Jul-23 15:49 32.244414 -109.388958 76 9474ft 101kts
17-Jul-23 15:50 32.250796 -109.356771 76 9471ft 100kts
17-Jul-23 15:51 32.258337 -109.325014 73 9467ft 100kts
17-Jul-23 15:52 32.266147 -109.293418 73 9468ft 100kts
17-Jul-23 15:53 32.273877 -109.261841 73 9460ft 100kts
17-Jul-23 15:54 32.275151 -109.229566 84 9456ft 99kts
17-Jul-23 15:55 32.277606 -109.197043 85 9457ft 99kts
17-Jul-23 15:56 32.279806 -109.164143 85 9462ft 100kts
17-Jul-23 15:57 32.280617 -109.131347 90 9454ft 100kts
17-Jul-23 15:58 32.281077 -109.098229 89 9452ft 101kts
17-Jul-23 15:59 32.281442 -109.065069 90 9454ft 100kts
17-Jul-23 16:00 32.281734 -109.032248 89 9452ft 100kts
17-Jul-23 16:02 32.282041 -109.012239 89 9453ft 100kts
17-Jul-23 16:03 32.282100 -109.008342 89 9453ft 100kts
17-Jul-23 16:04 32.283094 -108.975446 90 9454ft 99kts
17-Jul-23 16:05 32.283170 -108.942726 90 9457ft 99kts
17-Jul-23 16:06 32.283265 -108.910201 90 9459ft 99kts
17-Jul-23 16:07 32.283371 -108.877689 90 9459ft 98kts
17-Jul-23 16:08 32.283536 -108.845512 90 9463ft 98kts
17-Jul-23 16:09 32.283767 -108.813115 90 9466ft 98kts
17-Jul-23 16:10 32.284011 -108.780783 90 9467ft 98kts
17-Jul-23 16:11 32.284378 -108.748521 90 9473ft 98kts
17-Jul-23 16:12 32.284553 -108.716443 90 9488ft 96kts
17-Jul-23 16:13 32.284760 -108.684662 90 9485ft 96kts
17-Jul-23 16:14 32.284984 -108.652832 90 9491ft 97kts
17-Jul-23 16:15 32.285198 -108.620783 90 9498ft 97kts
17-Jul-23 16:16 32.285397 -108.588875 90 9502ft 96kts
17-Jul-23 16:17 32.285610 -108.556971 90 9505ft 97kts
17-Jul-23 16:18 32.285860 -108.525385 90 9508ft 96kts
17-Jul-23 16:19 32.286026 -108.493747 90 9519ft 96kts
17-Jul-23 16:20 32.286326 -108.461932 90 9525ft 96kts
17-Jul-23 16:21 32.286618 -108.430427 90 9527ft 95kts
17-Jul-23 16:22 32.286826 -108.398955 90 9531ft 96kts
17-Jul-23 16:23 32.286985 -108.367147 90 9525ft 95kts
17-Jul-23 16:24 32.287183 -108.336028 90 9531ft 94kts
17-Jul-23 16:25 32.287394 -108.305008 90 9530ft 94kts
17-Jul-23 16:26 32.287235 -108.273677 92 9536ft 96kts
17-Jul-23 16:27 32.286414 -108.242109 92 9535ft 95kts
17-Jul-23 16:28 32.285646 -108.210761 92 9538ft 95kts
17-Jul-23 16:28 32.285007 -108.184766 92 9539ft 94kts
17-Jul-23 16:30 32.284092 -108.148147 92 9545ft 96kts
17-Jul-23 16:31 32.283308 -108.116515 92 9551ft 96kts
17-Jul-23 16:32 32.282587 -108.084830 92 9574ft 96kts
17-Jul-23 16:33 32.281973 -108.052891 92 9597ft 97kts
17-Jul-23 16:33 32.281459 -108.026115 92 9615ft 98kts
17-Jul-23 16:34 32.280918 -107.993548 92 9634ft 97kts
17-Jul-23 16:36 32.276472 -107.956270 115 9306ft 101kts
17-Jul-23 16:37 32.264226 -107.923598 112 8678ft 114kts
17-Jul-23 16:37 32.255260 -107.893115 92 7967ft 121kts
17-Jul-23 16:38 32.252812 -107.853760 92 7222ft 120kts
17-Jul-23 16:39 32.252409 -107.814067 93 6462ft 120kts
17-Jul-23 16:41 32.251979 -107.768028 90 5587ft 119kts
17-Jul-23 16:42 32.252508 -107.731756 90 5471ft 105kts
17-Jul-23 16:42 32.253373 -107.703594 91 5424ft 99kts
17-Jul-23 16:43 32.271740 -107.692765 305 5453ft 99kts
17-Jul-23 16:44 32.274251 -107.724335 271 5532ft 98kts
17-Jul-23 16:45 32.268104 -107.750374 165 5223ft 92kts
17-Jul-23 16:46 32.262970 -107.725553 92 4311ft 51kts
17-Jul-23 16:47 32.265420 -107.724083 344 4311ft 7kts
17-Jul-23 16:48 32.265558 -107.724379 273 4312ft 0kts
17-Jul-23 16:49 32.265558 -107.724379 273 4312ft 0kts

Navigation Log

Ident Type
Flight plan parsing failed, navigation log unavailable